Time;durP1;ratioP1;P1;durP2;ratioP2;P2;SDS_P1;SDS_P2;PMS_P1;PMS_P2;Temp;Humidity;BMP_temperature;BMP_pressure;BME280_temperature;BME280_humidity;BME280_pressure;Samples;Min_cycle;Max_cycle;Signal;HPM_P1;HPM_P2
2021/06/14 00:00:53;;;;;;;1.33;0.60;;;11.50;99.90;;;;;;5077413;28;20886;-89
2021/06/14 00:03:20;;;;;;;1.38;0.70;;;11.70;99.90;;;;;;5081461;28;20517;-90
2021/06/14 00:05:47;;;;;;;1.52;1.05;;;11.70;99.90;;;;;;5084726;28;20485;-89
2021/06/14 00:08:18;;;;;;;2.97;0.90;;;11.80;99.90;;;;;;5083320;28;20384;-91
2021/06/14 00:10:47;;;;;;;2.13;0.90;;;12.00;99.90;;;;;;5090719;28;20569;-90
2021/06/14 00:13:14;;;;;;;1.27;1.00;;;12.10;99.90;;;;;;5088291;28;20388;-88
2021/06/14 00:15:43;;;;;;;0.90;0.70;;;12.20;99.90;;;;;;5080910;28;20396;-89
2021/06/14 00:18:11;;;;;;;1.25;0.80;;;12.30;99.90;;;;;;5081126;28;20384;-88
2021/06/14 00:20:39;;;;;;;1.70;0.60;;;12.40;99.90;;;;;;5083386;28;20768;-86
2021/06/14 00:23:09;;;;;;;0.73;0.70;;;12.50;99.90;;;;;;5087933;28;20465;-87
2021/06/14 00:25:37;;;;;;;0.90;0.80;;;12.50;99.90;;;;;;5087420;28;20463;-88
2021/06/14 00:28:05;;;;;;;0.82;0.73;;;12.50;99.90;;;;;;5088571;28;20778;-87
2021/06/14 00:30:42;;;;;;;0.93;0.80;;;12.40;99.90;;;;;;5091925;28;20376;-87
2021/06/14 00:33:10;;;;;;;1.48;0.70;;;12.20;99.90;;;;;;5090119;28;20376;-86
2021/06/14 00:35:37;;;;;;;0.95;0.77;;;12.10;99.90;;;;;;5090907;28;20387;-87
2021/06/14 00:38:05;;;;;;;1.73;0.80;;;12.10;99.90;;;;;;5088742;28;21640;-86
2021/06/14 00:40:32;;;;;;;0.70;0.70;;;12.10;99.90;;;;;;5079194;28;20478;-86
2021/06/14 00:43:00;;;;;;;1.23;0.82;;;12.10;99.90;;;;;;5091745;28;20389;-87
2021/06/14 00:45:32;;;;;;;1.65;0.80;;;12.10;99.90;;;;;;5091087;28;20795;-88
2021/06/14 00:48:00;;;;;;;1.20;0.73;;;12.20;99.90;;;;;;5093095;28;20663;-88
2021/06/14 00:50:33;;;;;;;1.80;0.80;;;12.30;99.90;;;;;;5092431;28;20375;-89
2021/06/14 00:53:00;;;;;;;1.75;0.70;;;12.30;99.90;;;;;;5092434;28;20368;-86
2021/06/14 00:55:27;;;;;;;0.85;0.73;;;12.40;99.90;;;;;;5092003;28;20879;-86
2021/06/14 00:57:54;;;;;;;0.73;0.70;;;12.50;99.90;;;;;;5092630;28;20423;-88
2021/06/14 01:00:22;;;;;;;2.95;1.00;;;12.60;99.90;;;;;;5091871;28;20380;-88
2021/06/14 01:02:49;;;;;;;3.63;1.10;;;12.60;99.90;;;;;;5091839;28;20385;-88
2021/06/14 01:05:17;;;;;;;1.93;1.00;;;12.70;99.90;;;;;;5090684;28;20405;-86
2021/06/14 01:07:45;;;;;;;1.08;0.90;;;12.80;99.90;;;;;;5089088;28;20732;-86
2021/06/14 01:10:17;;;;;;;1.33;1.00;;;12.90;99.90;;;;;;5079628;28;20439;-86
2021/06/14 01:13:23;;;;;;;1.00;0.80;;;13.00;99.90;;;;;;5080325;28;20752;-86
2021/06/14 01:16:01;;;;;;;4.40;1.20;;;13.20;99.90;;;;;;5075068;28;21127;-87
2021/06/14 01:18:40;;;;;;;1.88;1.00;;;13.30;99.90;;;;;;5088447;28;20388;-88
2021/06/14 01:21:30;;;;;;;1.40;0.80;;;13.40;99.90;;;;;;5084925;28;20434;-86
2021/06/14 01:24:15;;;;;;;1.60;1.00;;;13.40;99.90;;;;;;5083772;28;20876;-85
2021/06/14 01:26:57;;;;;;;4.28;1.17;;;13.50;99.90;;;;;;5072534;28;20862;-87
2021/06/14 01:29:26;;;;;;;2.10;0.80;;;13.50;99.90;;;;;;5075201;28;20386;-87
2021/06/14 01:31:54;;;;;;;3.97;1.40;;;13.50;99.90;;;;;;5073459;28;20790;-87
2021/06/14 01:34:26;;;;;;;2.63;1.40;;;13.50;99.90;;;;;;5091353;28;20384;-86
2021/06/14 01:36:56;;;;;;;1.27;1.07;;;13.60;99.90;;;;;;5084021;28;20455;-85
2021/06/14 01:39:26;;;;;;;1.70;0.93;;;13.60;99.90;;;;;;5090041;28;20377;-86
2021/06/14 01:41:55;;;;;;;1.43;1.00;;;13.70;99.90;;;;;;5090067;28;20404;-87
2021/06/14 01:44:24;;;;;;;2.67;1.17;;;13.80;99.90;;;;;;5090489;28;20387;-88
2021/06/14 01:46:55;;;;;;;1.92;1.10;;;13.80;99.90;;;;;;5090431;28;20470;-87
2021/06/14 01:49:23;;;;;;;1.73;0.80;;;13.90;99.90;;;;;;5091115;28;20384;-87
2021/06/14 01:51:51;;;;;;;1.20;1.10;;;14.00;99.90;;;;;;5091059;28;20372;-88
2021/06/14 01:54:18;;;;;;;1.20;1.00;;;14.00;99.90;;;;;;5091592;28;20445;-87
2021/06/14 01:56:51;;;;;;;2.40;1.05;;;14.10;99.90;;;;;;5090527;28;20459;-87
2021/06/14 01:59:38;;;;;;;2.05;1.10;;;14.20;99.90;;;;;;5090464;28;20402;-86
2021/06/14 02:02:07;;;;;;;2.80;1.25;;;14.20;99.90;;;;;;5090911;28;20396;-86
2021/06/14 02:04:36;;;;;;;1.58;1.30;;;14.30;99.90;;;;;;5090832;28;20377;-87
2021/06/14 02:07:04;;;;;;;2.05;1.00;;;14.50;99.90;;;;;;5087070;28;20396;-87
2021/06/14 02:09:33;;;;;;;2.05;1.30;;;14.60;99.90;;;;;;5090437;28;20398;-88
2021/06/14 02:12:03;;;;;;;3.20;1.40;;;14.70;99.90;;;;;;5070464;28;20409;-87
2021/06/14 02:14:34;;;;;;;1.90;1.00;;;14.80;99.90;;;;;;5090278;28;20516;-86
2021/06/14 02:17:20;;;;;;;3.55;1.30;;;14.90;99.90;;;;;;5096414;28;20420;-87
2021/06/14 02:19:48;;;;;;;2.63;1.10;;;15.00;99.90;;;;;;5097059;28;20396;-88
2021/06/14 02:22:17;;;;;;;2.70;1.10;;;15.10;99.90;;;;;;5087125;28;20973;-87
2021/06/14 02:24:44;;;;;;;1.60;1.20;;;15.20;99.90;;;;;;5089711;28;20392;-88
2021/06/14 02:27:14;;;;;;;1.80;1.20;;;15.30;99.90;;;;;;5089150;28;20494;-86
2021/06/14 02:29:41;;;;;;;2.80;1.05;;;15.40;99.90;;;;;;5088923;28;20391;-88
2021/06/14 02:32:09;;;;;;;2.55;1.30;;;15.50;99.90;;;;;;5078492;28;20405;-86
2021/06/14 02:34:37;;;;;;;1.70;1.00;;;15.50;99.90;;;;;;5077789;28;20419;-89
2021/06/14 02:37:06;;;;;;;2.38;1.02;;;15.60;99.90;;;;;;5077584;28;20389;-92
2021/06/14 02:39:34;;;;;;;1.85;1.27;;;15.80;99.90;;;;;;5069817;28;20375;-89
2021/06/14 02:42:03;;;;;;;2.05;1.23;;;15.90;99.90;;;;;;5080154;28;20404;-89
2021/06/14 02:44:31;;;;;;;3.60;1.33;;;16.00;99.90;;;;;;5088882;28;20419;-87
2021/06/14 02:47:04;;;;;;;2.05;1.20;;;16.00;99.90;;;;;;5073201;28;20444;-91
2021/06/14 02:49:33;;;;;;;2.50;1.10;;;16.10;99.90;;;;;;5080803;28;20398;-90
2021/06/14 02:52:04;;;;;;;2.97;1.10;;;16.20;99.90;;;;;;5085247;28;20467;-86
2021/06/14 02:54:39;;;;;;;1.67;0.90;;;16.30;99.90;;;;;;5088002;28;20391;-90
2021/06/14 02:57:10;;;;;;;2.27;1.10;;;16.30;99.90;;;;;;5087867;28;20454;-90
2021/06/14 02:59:38;;;;;;;1.10;1.00;;;16.30;99.90;;;;;;5075292;28;20417;-85
2021/06/14 03:02:06;;;;;;;2.60;0.95;;;16.20;99.90;;;;;;5072611;28;20408;-87
2021/06/14 03:04:34;;;;;;;1.95;1.30;;;16.10;99.90;;;;;;5071351;28;20447;-87
2021/06/14 03:07:02;;;;;;;0.93;0.90;;;16.20;99.90;;;;;;5069099;28;20459;-89
2021/06/14 03:09:30;;;;;;;2.55;0.90;;;16.30;99.90;;;;;;5079549;28;20421;-88
2021/06/14 03:11:58;;;;;;;2.05;0.90;;;16.30;99.90;;;;;;5089023;28;20368;-88
2021/06/14 03:14:27;;;;;;;1.70;1.10;;;16.20;99.90;;;;;;5092272;28;20396;-88
2021/06/14 03:16:54;;;;;;;4.70;1.10;;;16.30;99.90;;;;;;5088635;28;20438;-89
2021/06/14 03:19:23;;;;;;;1.40;1.25;;;16.20;99.90;;;;;;5089220;28;20384;-87
2021/06/14 03:21:51;;;;;;;1.52;1.20;;;16.10;99.90;;;;;;5089604;28;20427;-88
2021/06/14 03:24:18;;;;;;;1.20;1.00;;;15.90;99.90;;;;;;5089276;28;20859;-87
2021/06/14 03:26:46;;;;;;;1.95;1.40;;;15.90;99.90;;;;;;5088029;28;20403;-89
2021/06/14 03:29:22;;;;;;;3.00;1.20;;;15.80;99.90;;;;;;5089374;28;20400;-89
2021/06/14 03:31:50;;;;;;;2.72;0.95;;;15.90;99.90;;;;;;5089364;28;20408;-86
2021/06/14 03:34:21;;;;;;;2.38;1.00;;;15.90;99.90;;;;;;5089437;28;20863;-87
2021/06/14 03:36:49;;;;;;;1.30;1.10;;;15.90;99.90;;;;;;5089151;28;20619;-87
2021/06/14 03:39:17;;;;;;;2.63;1.00;;;15.90;99.90;;;;;;5089073;28;20387;-87
2021/06/14 03:41:48;;;;;;;4.03;1.23;;;15.90;99.90;;;;;;5089294;28;20468;-87
2021/06/14 03:44:19;;;;;;;1.13;0.70;;;16.00;99.90;;;;;;5089281;28;20376;-89
2021/06/14 03:46:47;;;;;;;1.55;0.90;;;16.00;99.90;;;;;;5089588;28;20853;-89
2021/06/14 03:49:14;;;;;;;1.37;0.60;;;15.80;99.90;;;;;;5089932;28;20724;-88
2021/06/14 03:51:41;;;;;;;1.38;0.90;;;15.70;99.90;;;;;;5099056;28;20387;-88
2021/06/14 03:54:08;;;;;;;0.90;0.80;;;15.70;99.90;;;;;;5098313;28;20376;-90
2021/06/14 03:56:37;;;;;;;1.42;1.08;;;15.60;99.90;;;;;;5090108;28;20385;-90
2021/06/14 03:59:05;;;;;;;3.42;0.98;;;15.50;99.90;;;;;;5090979;28;20384;-88
2021/06/14 04:01:33;;;;;;;3.10;0.88;;;15.40;99.90;;;;;;5092456;28;20404;-90
2021/06/14 04:06:28;;;;;;;1.30;0.75;;;15.50;99.90;;;;;;5099656;28;20376;-87
2021/06/14 04:08:55;;;;;;;3.57;1.10;;;15.50;99.90;;;;;;5100450;28;20384;-88
2021/06/14 04:11:22;;;;;;;1.60;0.68;;;15.60;99.90;;;;;;5092820;28;20392;-87
2021/06/14 04:13:49;;;;;;;2.72;0.85;;;15.60;99.90;;;;;;5092991;28;20863;-89
2021/06/14 04:16:18;;;;;;;1.88;1.10;;;15.50;99.90;;;;;;5092797;28;20379;-88
2021/06/14 04:18:46;;;;;;;2.00;0.80;;;15.50;99.90;;;;;;5092694;28;20459;-87
2021/06/14 04:21:13;;;;;;;2.60;1.00;;;15.40;99.90;;;;;;5092419;28;20719;-88
2021/06/14 04:23:40;;;;;;;1.33;0.75;;;15.50;99.90;;;;;;5093084;28;20369;-85
2021/06/14 04:26:08;;;;;;;1.98;1.00;;;15.40;99.90;;;;;;5092551;28;20449;-87
2021/06/14 04:28:35;;;;;;;3.88;1.35;;;15.50;99.90;;;;;;5092538;28;20369;-88
2021/06/14 04:31:02;;;;;;;2.20;1.17;;;15.50;99.90;;;;;;5092289;28;20399;-88
2021/06/14 04:33:29;;;;;;;2.05;1.02;;;15.50;99.90;;;;;;5092495;28;20408;-86
2021/06/14 04:35:59;;;;;;;2.10;1.10;;;15.50;99.90;;;;;;5094159;28;20377;-86
2021/06/14 04:38:26;;;;;;;4.55;1.30;;;15.60;99.90;;;;;;5092433;28;20460;-87
2021/06/14 04:40:53;;;;;;;3.47;1.90;;;15.60;99.90;;;;;;5091891;28;21284;-87
2021/06/14 04:43:20;;;;;;;2.95;1.80;;;15.50;99.90;;;;;;5092264;28;20406;-86
2021/06/14 04:45:47;;;;;;;2.83;1.57;;;15.50;99.90;;;;;;5092127;28;20357;-86
2021/06/14 04:48:14;;;;;;;2.30;1.55;;;15.50;99.90;;;;;;5090799;28;20736;-86
2021/06/14 04:50:41;;;;;;;1.63;0.90;;;15.50;99.90;;;;;;5092037;28;20369;-88
2021/06/14 04:53:08;;;;;;;2.05;0.82;;;15.50;99.90;;;;;;5092551;28;20460;-88
2021/06/14 04:55:35;;;;;;;1.92;1.00;;;15.50;99.90;;;;;;5091793;28;20388;-85
2021/06/14 04:58:05;;;;;;;1.75;0.75;;;15.50;99.90;;;;;;5091975;28;20393;-88
2021/06/14 05:00:33;;;;;;;3.00;1.02;;;15.60;99.90;;;;;;5091946;28;20839;-86
2021/06/14 05:03:01;;;;;;;2.05;1.30;;;15.60;99.90;;;;;;5091704;28;20390;-88
2021/06/14 05:05:28;;;;;;;1.65;1.27;;;15.60;99.90;;;;;;5091728;28;20369;-87
2021/06/14 05:07:55;;;;;;;2.13;1.20;;;15.70;99.90;;;;;;5091745;28;20831;-87
2021/06/14 05:10:22;;;;;;;3.50;1.00;;;15.70;99.90;;;;;;5091890;28;20751;-87
2021/06/14 05:12:49;;;;;;;2.47;0.90;;;15.70;99.90;;;;;;5090945;28;20407;-86
2021/06/14 05:15:17;;;;;;;3.05;1.17;;;15.70;99.90;;;;;;5091509;28;20368;-87
2021/06/14 05:17:45;;;;;;;1.52;1.00;;;15.70;99.90;;;;;;5095283;28;20453;-88
2021/06/14 05:20:12;;;;;;;1.10;1.00;;;15.70;99.90;;;;;;5091584;28;20709;-86
2021/06/14 05:22:39;;;;;;;3.03;1.30;;;15.70;99.90;;;;;;5091938;28;20507;-87
2021/06/14 05:25:06;;;;;;;2.40;1.25;;;15.80;99.90;;;;;;5091246;28;20727;-87
2021/06/14 05:27:33;;;;;;;2.20;1.00;;;15.70;99.90;;;;;;5091333;28;20381;-87
2021/06/14 05:30:00;;;;;;;3.45;1.20;;;15.70;99.90;;;;;;5091186;28;20472;-88
2021/06/14 05:32:28;;;;;;;3.03;1.15;;;15.60;99.90;;;;;;5091252;28;20407;-85
2021/06/14 05:34:55;;;;;;;2.80;1.10;;;15.70;99.90;;;;;;5090501;28;20395;-87
2021/06/14 05:37:22;;;;;;;2.30;0.95;;;15.60;99.90;;;;;;5091312;28;20404;-89
2021/06/14 05:39:49;;;;;;;1.88;0.85;;;15.50;99.90;;;;;;5091004;28;20414;-88
2021/06/14 05:42:16;;;;;;;2.35;1.20;;;15.40;99.90;;;;;;5090841;28;20496;-86
2021/06/14 05:44:43;;;;;;;2.47;1.00;;;15.50;99.90;;;;;;5091145;28;20400;-88
2021/06/14 05:47:10;;;;;;;3.05;1.20;;;15.40;99.90;;;;;;5090662;28;20811;-87
2021/06/14 05:49:36;;;;;;;1.80;0.90;;;15.40;99.90;;;;;;5090907;28;20418;-86
2021/06/14 05:52:04;;;;;;;1.35;0.80;;;15.40;99.90;;;;;;5090957;28;20455;-87
2021/06/14 05:54:31;;;;;;;3.67;1.13;;;15.50;99.90;;;;;;5091414;28;20507;-86
2021/06/14 05:56:58;;;;;;;1.43;0.87;;;15.50;99.90;;;;;;5091494;28;20385;-88
2021/06/14 05:59:25;;;;;;;0.70;0.70;;;15.50;99.90;;;;;;5091484;28;20376;-88
2021/06/14 06:01:52;;;;;;;1.67;0.88;;;15.60;99.90;;;;;;5091145;28;20393;-89
2021/06/14 06:04:20;;;;;;;2.15;0.82;;;15.70;99.90;;;;;;5091276;28;20381;-85
2021/06/14 06:06:47;;;;;;;1.85;1.00;;;15.60;99.90;;;;;;5090278;28;20388;-87
2021/06/14 06:09:14;;;;;;;1.27;0.80;;;15.50;99.90;;;;;;5090415;28;20372;-88
2021/06/14 06:11:41;;;;;;;0.83;0.70;;;15.40;99.90;;;;;;5090405;28;20372;-86
2021/06/14 06:14:08;;;;;;;1.10;1.00;;;15.30;99.90;;;;;;5090371;28;20372;-87
2021/06/14 06:16:35;;;;;;;2.10;0.90;;;15.20;99.90;;;;;;5089970;28;20720;-86
2021/06/14 06:19:02;;;;;;;0.77;0.77;;;15.20;99.90;;;;;;5090369;28;20463;-86
2021/06/14 06:21:29;;;;;;;2.30;0.90;;;15.10;99.90;;;;;;5090142;28;20765;-89
2021/06/14 06:23:59;;;;;;;1.67;0.70;;;15.10;99.90;;;;;;5090925;28;20402;-86
2021/06/14 06:26:26;;;;;;;3.03;0.95;;;15.00;99.90;;;;;;5089055;28;20451;-87
2021/06/14 06:28:54;;;;;;;1.50;0.80;;;15.00;99.90;;;;;;5090063;28;20395;-85
2021/06/14 06:31:22;;;;;;;1.75;0.80;;;15.00;99.90;;;;;;5090361;28;20393;-87
2021/06/14 06:33:50;;;;;;;1.33;0.90;;;14.90;99.90;;;;;;5090042;28;20406;-87
2021/06/14 06:36:17;;;;;;;1.30;1.20;;;14.90;99.90;;;;;;5089681;28;20396;-87
2021/06/14 06:38:44;;;;;;;2.85;1.27;;;14.90;99.90;;;;;;5089969;28;20462;-86
2021/06/14 06:41:11;;;;;;;1.30;1.00;;;14.80;99.90;;;;;;5089718;28;20412;-86
2021/06/14 06:43:38;;;;;;;5.38;1.73;;;14.80;99.90;;;;;;5089983;28;20368;-87
2021/06/14 06:46:05;;;;;;;2.60;1.60;;;14.80;99.90;;;;;;5089203;28;20392;-84
2021/06/14 06:48:33;;;;;;;2.97;1.52;;;14.70;99.90;;;;;;5089589;28;20392;-86
2021/06/14 06:51:00;;;;;;;2.03;1.40;;;14.60;99.90;;;;;;5089695;28;20406;-85
2021/06/14 06:53:28;;;;;;;1.70;1.40;;;14.60;99.90;;;;;;5089955;28;20499;-86
2021/06/14 06:55:55;;;;;;;5.43;3.70;;;14.50;99.90;;;;;;5089379;28;20463;-85
2021/06/14 06:58:24;;;;;;;6.25;3.60;;;14.40;99.90;;;;;;5089650;28;20391;-87
2021/06/14 07:00:51;;;;;;;5.00;2.57;;;14.40;99.90;;;;;;5089631;28;20383;-87
2021/06/14 07:03:19;;;;;;;5.47;2.77;;;14.40;99.90;;;;;;5089503;28;20377;-86
2021/06/14 07:05:46;;;;;;;3.33;1.98;;;14.30;99.90;;;;;;5089178;28;20376;-86
2021/06/14 07:08:13;;;;;;;3.15;1.98;;;14.20;99.90;;;;;;5088202;28;20376;-86
2021/06/14 07:10:41;;;;;;;2.25;1.92;;;14.20;99.90;;;;;;5089364;28;20456;-86
2021/06/14 07:13:08;;;;;;;2.35;1.75;;;14.10;99.90;;;;;;5089545;28;20372;-86
2021/06/14 07:15:36;;;;;;;3.38;2.10;;;14.10;99.90;;;;;;5089050;28;20458;-86
2021/06/14 07:18:03;;;;;;;3.65;3.35;;;14.00;99.90;;;;;;5089330;28;20369;-85
2021/06/14 07:20:30;;;;;;;6.85;6.15;;;14.00;99.90;;;;;;5089195;28;20379;-86
2021/06/14 07:22:57;;;;;;;5.88;4.80;;;14.00;99.90;;;;;;5089661;28;20459;-86
2021/06/14 07:25:24;;;;;;;7.60;5.50;;;13.90;99.90;;;;;;5089125;28;20945;-86
2021/06/14 07:27:51;;;;;;;8.77;7.00;;;13.90;99.90;;;;;;5089275;28;20383;-86
2021/06/14 07:30:19;;;;;;;10.20;8.05;;;13.80;99.90;;;;;;5089053;28;20381;-85
2021/06/14 07:32:46;;;;;;;24.67;20.70;;;13.80;99.90;;;;;;5089210;28;20471;-86
2021/06/14 07:35:13;;;;;;;16.48;14.68;;;13.80;99.90;;;;;;5089029;28;20720;-85
2021/06/14 07:37:40;;;;;;;8.50;7.03;;;13.70;99.90;;;;;;5088665;28;20387;-84
2021/06/14 07:40:08;;;;;;;7.13;6.40;;;13.60;99.90;;;;;;5089000;28;20372;-84
2021/06/14 07:42:35;;;;;;;7.05;5.68;;;13.60;99.90;;;;;;5087300;28;20411;-86
2021/06/14 07:45:03;;;;;;;6.30;5.20;;;13.50;99.90;;;;;;5080944;28;20396;-85
2021/06/14 07:47:30;;;;;;;5.27;4.40;;;13.50;99.90;;;;;;5079641;28;20386;-84
2021/06/14 07:49:57;;;;;;;4.85;4.25;;;13.40;99.90;;;;;;5088906;28;20369;-89
2021/06/14 07:52:24;;;;;;;4.53;3.60;;;13.30;99.90;;;;;;5089159;28;20837;-89
2021/06/14 07:54:51;;;;;;;6.90;4.55;;;13.30;99.90;;;;;;5088447;28;20728;-87
2021/06/14 07:57:18;;;;;;;8.68;5.57;;;13.20;99.90;;;;;;5077758;28;20399;-89
2021/06/14 07:59:45;;;;;;;6.55;5.68;;;13.20;99.90;;;;;;5084592;28;20388;-89
2021/06/14 08:02:12;;;;;;;8.55;7.25;;;13.10;99.90;;;;;;5068246;28;20413;-89
2021/06/14 08:04:40;;;;;;;21.15;17.45;;;13.10;99.90;;;;;;5078848;28;20380;-86
2021/06/14 08:07:07;;;;;;;25.80;19.73;;;13.00;99.90;;;;;;5088492;28;20380;-87
2021/06/14 08:09:34;;;;;;;38.72;30.90;;;12.90;99.90;;;;;;5087596;28;20482;-87
2021/06/14 08:12:02;;;;;;;43.08;34.38;;;12.90;99.90;;;;;;5088319;28;20376;-88
2021/06/14 08:14:29;;;;;;;21.07;17.73;;;12.80;99.90;;;;;;5088185;28;20403;-85
2021/06/14 08:16:56;;;;;;;20.15;14.25;;;12.70;99.90;;;;;;5087834;28;20409;-88
2021/06/14 08:19:33;;;;;;;16.37;11.10;;;12.70;99.90;;;;;;5088809;28;20356;-89
2021/06/14 08:22:25;;;;;;;7.90;5.97;;;12.60;99.90;;;;;;5088340;28;20404;-87
2021/06/14 08:25:05;;;;;;;13.43;7.80;;;12.50;99.90;;;;;;5069538;28;20439;-88
2021/06/14 08:27:36;;;;;;;11.67;5.80;;;12.50;99.90;;;;;;5079479;28;20445;-86
2021/06/14 08:30:09;;;;;;;7.32;4.32;;;12.40;99.90;;;;;;5085212;28;20953;-86
2021/06/14 08:32:37;;;;;;;5.03;3.40;;;12.40;99.90;;;;;;5086982;28;20461;-86
2021/06/14 08:35:09;;;;;;;5.28;2.75;;;12.30;99.90;;;;;;5082875;28;20374;-87
2021/06/14 08:37:37;;;;;;;4.00;2.92;;;12.20;99.90;;;;;;5072725;28;20398;-88
2021/06/14 08:40:05;;;;;;;4.60;3.00;;;12.20;99.90;;;;;;5074813;28;20507;-87
2021/06/14 08:42:32;;;;;;;4.50;2.17;;;12.10;99.90;;;;;;5090517;28;20467;-87
2021/06/14 08:44:59;;;;;;;3.30;2.40;;;12.10;99.90;;;;;;5085666;28;20733;-90
2021/06/14 08:47:29;;;;;;;4.85;2.75;;;12.00;99.90;;;;;;5086897;28;20400;-91
2021/06/14 08:49:57;;;;;;;4.43;2.80;;;11.90;99.90;;;;;;5088347;28;20403;-94
2021/06/14 08:52:25;;;;;;;3.47;2.67;;;11.90;99.90;;;;;;5082797;28;20423;-93
2021/06/14 08:54:52;;;;;;;4.22;3.38;;;11.80;99.90;;;;;;5092544;28;20865;-92
2021/06/14 08:57:19;;;;;;;4.40;3.58;;;11.70;99.90;;;;;;5092209;28;20384;-91
2021/06/14 08:59:46;;;;;;;7.50;5.50;;;11.70;99.90;;;;;;5074799;28;20386;-91
2021/06/14 09:02:13;;;;;;;7.22;4.90;;;11.60;99.90;;;;;;5086660;28;20416;-91
2021/06/14 09:04:41;;;;;;;8.37;7.40;;;11.60;99.90;;;;;;5086377;28;20388;-88
2021/06/14 09:07:08;;;;;;;19.10;15.43;;;11.60;99.90;;;;;;5079477;28;20391;-86
2021/06/14 09:09:35;;;;;;;19.35;17.20;;;11.50;99.90;;;;;;5085609;28;20392;-88
2021/06/14 09:12:02;;;;;;;24.17;21.80;;;11.60;99.90;;;;;;5093656;28;20416;-87
2021/06/14 09:14:31;;;;;;;22.57;20.17;;;11.50;99.90;;;;;;5089436;28;20407;-88
2021/06/14 09:17:08;;;;;;;15.07;13.18;;;11.50;99.90;;;;;;5083024;28;20392;-87
2021/06/14 09:19:39;;;;;;;16.52;14.70;;;11.50;99.90;;;;;;5091469;28;21029;-86
2021/06/14 09:22:22;;;;;;;14.13;12.73;;;11.50;99.90;;;;;;5090871;28;20415;-87
2021/06/14 09:25:07;;;;;;;19.73;16.38;;;11.50;99.90;;;;;;5088173;28;20480;-86
2021/06/14 09:27:36;;;;;;;16.60;14.17;;;11.50;99.90;;;;;;5090686;28;21053;-88
2021/06/14 09:30:31;;;;;;;14.75;11.82;;;11.50;99.90;;;;;;5084068;28;20501;-79
2021/06/14 09:33:07;;;;;;;21.98;17.20;;;11.50;99.90;;;;;;5078543;28;20768;-87
2021/06/14 09:35:35;;;;;;;17.45;14.70;;;11.40;99.90;;;;;;5075525;28;20382;-89
2021/06/14 09:38:10;;;;;;;19.65;16.60;;;11.40;99.90;;;;;;5083674;28;20404;-88
2021/06/14 09:40:42;;;;;;;14.82;13.20;;;11.40;99.90;;;;;;5088395;28;20963;-88
2021/06/14 09:43:32;;;;;;;13.55;12.20;;;11.40;99.90;;;;;;5089321;28;20394;-87
2021/06/14 09:46:01;;;;;;;9.13;8.15;;;11.40;99.90;;;;;;5084725;28;20483;-87
2021/06/14 09:48:30;;;;;;;5.45;4.20;;;11.40;99.90;;;;;;5082488;28;20396;-86
2021/06/14 09:51:05;;;;;;;4.22;3.33;;;11.40;99.90;;;;;;5085637;28;20419;-87
2021/06/14 09:53:35;;;;;;;4.32;2.80;;;11.50;99.90;;;;;;5084804;28;20388;-88
2021/06/14 09:56:24;;;;;;;5.38;2.78;;;11.40;99.90;;;;;;5074498;28;20390;-88
2021/06/14 09:58:55;;;;;;;3.20;2.50;;;11.40;99.90;;;;;;5079774;28;20399;-88
2021/06/14 10:01:33;;;;;;;2.70;2.25;;;11.40;99.90;;;;;;5087002;28;20816;-88
2021/06/14 10:04:05;;;;;;;6.65;4.03;;;11.30;99.90;;;;;;5079723;28;20389;-87
2021/06/14 10:06:34;;;;;;;8.73;4.35;;;11.20;99.90;;;;;;5082993;28;20859;-87
2021/06/14 10:09:03;;;;;;;9.73;7.28;;;11.20;99.90;;;;;;5073189;28;20403;-88
2021/06/14 10:11:36;;;;;;;14.55;9.77;;;11.10;99.90;;;;;;5088405;28;20910;-86
2021/06/14 10:14:14;;;;;;;13.27;10.60;;;11.20;99.90;;;;;;5079098;28;20400;-87
2021/06/14 10:16:44;;;;;;;16.48;11.82;;;11.20;99.90;;;;;;5075031;28;20475;-87
2021/06/14 10:19:13;;;;;;;14.60;11.75;;;11.20;99.90;;;;;;5078036;28;20405;-87
2021/06/14 10:21:43;;;;;;;14.38;11.40;;;11.20;99.90;;;;;;5085969;28;20442;-89
2021/06/14 10:24:12;;;;;;;13.45;10.90;;;11.10;99.90;;;;;;5085372;28;21159;-87
2021/06/14 10:26:43;;;;;;;12.25;10.25;;;11.10;99.90;;;;;;5077544;28;20409;-85
2021/06/14 10:29:13;;;;;;;14.53;10.90;;;11.00;99.90;;;;;;5079570;28;20426;-86
2021/06/14 10:31:46;;;;;;;13.82;9.60;;;10.90;99.90;;;;;;5078743;28;20403;-86
2021/06/14 10:34:14;;;;;;;13.30;11.18;;;10.80;99.90;;;;;;5078211;28;20971;-85
2021/06/14 10:36:53;;;;;;;13.77;10.85;;;10.60;99.90;;;;;;5075603;28;20407;-85
2021/06/14 10:39:23;;;;;;;15.25;11.77;;;10.50;99.90;;;;;;5086127;28;20399;-85
2021/06/14 10:41:50;;;;;;;12.55;10.55;;;10.40;99.90;;;;;;5076532;28;20491;-84
2021/06/14 10:44:17;;;;;;;14.63;12.13;;;10.40;99.90;;;;;;5083898;28;20463;-85
2021/06/14 10:46:47;;;;;;;18.50;15.60;;;10.40;99.90;;;;;;5083452;28;20392;-84
2021/06/14 10:49:15;;;;;;;18.60;14.38;;;10.40;99.90;;;;;;5081951;28;20906;-84
2021/06/14 10:51:45;;;;;;;18.55;14.27;;;10.40;99.90;;;;;;5080211;28;20420;-85
2021/06/14 10:54:16;;;;;;;15.27;12.77;;;10.40;99.90;;;;;;5081640;28;20438;-84
2021/06/14 10:56:43;;;;;;;17.08;13.02;;;10.50;99.90;;;;;;5083417;28;20428;-84
2021/06/14 10:59:14;;;;;;;16.10;13.30;;;10.60;99.90;;;;;;5084769;28;20943;-85
2021/06/14 11:01:46;;;;;;;13.90;12.45;;;10.60;99.90;;;;;;5085750;28;20603;-85
2021/06/14 11:04:29;;;;;;;15.38;11.98;;;10.70;99.90;;;;;;5077229;28;20521;-85
2021/06/14 11:06:57;;;;;;;14.85;10.65;;;10.60;99.90;;;;;;5072826;28;20396;-85
2021/06/14 11:09:36;;;;;;;12.90;10.53;;;10.70;99.90;;;;;;5084794;28;20901;-84
2021/06/14 11:12:03;;;;;;;14.93;13.23;;;10.70;99.90;;;;;;5081193;28;20398;-85
2021/06/14 11:14:48;;;;;;;16.83;14.53;;;10.70;99.90;;;;;;5076551;28;20395;-85
2021/06/14 11:17:25;;;;;;;17.55;14.45;;;10.60;99.90;;;;;;5084668;28;20412;-89
2021/06/14 11:20:02;;;;;;;15.98;13.77;;;10.60;99.90;;;;;;5085361;28;20483;-91
2021/06/14 11:22:36;;;;;;;17.42;13.50;;;10.50;99.90;;;;;;5091052;28;20392;-90
2021/06/14 11:25:33;;;;;;;14.68;12.38;;;10.50;99.90;;;;;;5092784;28;20775;-89
2021/06/14 11:28:04;;;;;;;14.95;13.25;;;10.60;99.90;;;;;;5092064;28;20873;-89
2021/06/14 11:30:34;;;;;;;15.82;12.88;;;10.60;99.90;;;;;;5099775;28;20359;-89
2021/06/14 11:33:03;;;;;;;15.38;12.52;;;10.60;99.90;;;;;;5110307;28;20880;-88
2021/06/14 11:35:32;;;;;;;13.52;11.38;;;10.70;99.90;;;;;;5110698;28;20371;-90
2021/06/14 11:38:04;;;;;;;11.23;9.95;;;10.70;99.90;;;;;;5085787;28;20392;-89
2021/06/14 11:40:36;;;;;;;12.13;9.20;;;10.80;99.90;;;;;;5087740;28;20495;-89
2021/06/14 11:43:14;;;;;;;18.23;13.37;;;10.80;99.90;;;;;;5074271;28;20491;-88
2021/06/14 11:45:44;;;;;;;18.15;12.38;;;10.80;99.90;;;;;;5086903;28;20467;-88
2021/06/14 11:48:45;;;;;;;11.73;9.25;;;10.80;99.90;;;;;;5087923;28;20463;-88
2021/06/14 11:51:18;;;;;;;14.07;11.48;;;10.80;99.90;;;;;;5071892;28;20475;-88
2021/06/14 11:53:54;;;;;;;16.75;14.15;;;10.80;99.90;;;;;;5076253;28;20447;-89
2021/06/14 11:56:23;;;;;;;15.25;13.45;;;10.80;99.90;;;;;;5086448;28;20399;-88
2021/06/14 11:58:57;;;;;;;15.82;13.05;;;10.70;99.90;;;;;;5088934;28;20466;-88
2021/06/14 12:01:29;;;;;;;14.13;11.63;;;10.70;99.90;;;;;;5078613;28;20410;-88
2021/06/14 12:03:57;;;;;;;9.50;8.48;;;10.70;99.90;;;;;;5082214;28;20380;-87
2021/06/14 12:06:26;;;;;;;10.73;9.57;;;10.80;99.90;;;;;;5077659;28;20488;-87
2021/06/14 12:08:53;;;;;;;12.02;10.07;;;10.80;99.90;;;;;;5085267;28;20445;-87
2021/06/14 12:11:25;;;;;;;11.73;9.88;;;10.80;99.90;;;;;;5087314;28;20392;-87
2021/06/14 12:13:52;;;;;;;13.70;9.25;;;10.80;99.90;;;;;;5086761;28;20396;-87
2021/06/14 12:16:24;;;;;;;11.63;9.55;;;10.80;99.90;;;;;;5086753;28;20392;-88
2021/06/14 12:19:00;;;;;;;9.80;8.40;;;10.90;99.90;;;;;;5083961;28;20916;-88
2021/06/14 12:21:27;;;;;;;11.00;8.85;;;10.90;99.90;;;;;;5081536;28;20427;-87
2021/06/14 12:23:54;;;;;;;10.75;8.38;;;10.90;99.90;;;;;;5088214;28;20479;-88
2021/06/14 12:26:21;;;;;;;11.35;9.05;;;10.90;99.90;;;;;;5091301;28;20364;-89
2021/06/14 12:28:48;;;;;;;11.02;9.45;;;10.90;99.90;;;;;;5078115;28;20397;-88
2021/06/14 12:31:15;;;;;;;12.32;9.52;;;10.80;99.90;;;;;;5080406;28;20449;-88
2021/06/14 12:33:45;;;;;;;10.63;9.48;;;10.80;99.90;;;;;;5087447;28;20411;-89
2021/06/14 12:36:13;;;;;;;11.38;9.07;;;10.80;99.90;;;;;;5083196;28;20455;-88
2021/06/14 12:38:54;;;;;;;12.77;9.48;;;10.70;99.90;;;;;;5075599;28;20390;-87
2021/06/14 12:41:22;;;;;;;10.68;9.55;;;10.70;99.90;;;;;;5088036;28;21213;-88
2021/06/14 12:43:49;;;;;;;10.95;9.10;;;10.70;99.90;;;;;;5083100;28;20423;-87
2021/06/14 12:46:16;;;;;;;15.95;9.02;;;10.60;99.90;;;;;;5088134;28;20916;-87
2021/06/14 12:48:51;;;;;;;13.65;9.98;;;10.70;99.90;;;;;;5081048;28;20390;-87
2021/06/14 12:51:18;;;;;;;12.38;9.48;;;10.70;99.90;;;;;;5081598;28;20384;-87
2021/06/14 12:53:45;;;;;;;11.67;9.63;;;10.60;99.90;;;;;;5090764;28;20404;-87
2021/06/14 12:56:14;;;;;;;10.75;9.07;;;10.60;99.90;;;;;;5089234;28;20396;-86